sensor_id;sensor_type;location;lat;lon;timestamp;P1;durP1;ratioP1;P2;durP2;ratioP2
15228;SDS011;7717;47.792;12.076;2024-02-23T00:01:26;0.87;;;0.20;;
15228;SDS011;7717;47.792;12.076;2024-02-23T00:03:51;1.10;;;0.20;;
15228;SDS011;7717;47.792;12.076;2024-02-23T00:06:16;0.27;;;0.27;;
15228;SDS011;7717;47.792;12.076;2024-02-23T00:08:42;0.20;;;0.20;;
15228;SDS011;7717;47.792;12.076;2024-02-23T00:11:08;0.30;;;0.20;;
15228;SDS011;7717;47.792;12.076;2024-02-23T00:13:33;0.47;;;0.20;;
15228;SDS011;7717;47.792;12.076;2024-02-23T00:15:59;0.10;;;0.10;;
15228;SDS011;7717;47.792;12.076;2024-02-23T00:18:24;1.30;;;0.20;;
15228;SDS011;7717;47.792;12.076;2024-02-23T00:20:49;0.27;;;0.20;;
15228;SDS011;7717;47.792;12.076;2024-02-23T00:23:15;0.20;;;0.20;;
15228;SDS011;7717;47.792;12.076;2024-02-23T00:25:41;1.87;;;0.40;;
15228;SDS011;7717;47.792;12.076;2024-02-23T00:28:06;0.20;;;0.20;;
15228;SDS011;7717;47.792;12.076;2024-02-23T00:30:32;0.20;;;0.20;;
15228;SDS011;7717;47.792;12.076;2024-02-23T00:32:58;1.60;;;0.20;;
15228;SDS011;7717;47.792;12.076;2024-02-23T00:35:23;0.10;;;0.10;;
15228;SDS011;7717;47.792;12.076;2024-02-23T00:37:49;0.30;;;0.20;;
15228;SDS011;7717;47.792;12.076;2024-02-23T00:40:14;0.30;;;0.30;;
15228;SDS011;7717;47.792;12.076;2024-02-23T00:42:39;0.13;;;0.13;;
15228;SDS011;7717;47.792;12.076;2024-02-23T00:45:05;0.23;;;0.10;;
15228;SDS011;7717;47.792;12.076;2024-02-23T00:47:31;0.10;;;0.10;;
15228;SDS011;7717;47.792;12.076;2024-02-23T00:49:56;0.13;;;0.13;;
15228;SDS011;7717;47.792;12.076;2024-02-23T00:52:21;0.27;;;0.10;;
15228;SDS011;7717;47.792;12.076;2024-02-23T00:54:47;1.27;;;0.10;;
15228;SDS011;7717;47.792;12.076;2024-02-23T00:57:12;0.10;;;0.10;;
15228;SDS011;7717;47.792;12.076;2024-02-23T00:59:38;0.30;;;0.30;;
15228;SDS011;7717;47.792;12.076;2024-02-23T01:02:03;0.03;;;0.03;;
15228;SDS011;7717;47.792;12.076;2024-02-23T01:04:29;0.10;;;0.10;;
15228;SDS011;7717;47.792;12.076;2024-02-23T01:06:55;0.10;;;0.10;;
15228;SDS011;7717;47.792;12.076;2024-02-23T01:09:20;0.20;;;0.20;;
15228;SDS011;7717;47.792;12.076;2024-02-23T01:11:48;0.00;;;0.00;;
15228;SDS011;7717;47.792;12.076;2024-02-23T01:14:14;0.10;;;0.10;;
15228;SDS011;7717;47.792;12.076;2024-02-23T01:16:39;0.10;;;0.10;;
15228;SDS011;7717;47.792;12.076;2024-02-23T01:19:04;0.10;;;0.10;;
15228;SDS011;7717;47.792;12.076;2024-02-23T01:21:30;0.10;;;0.10;;
15228;SDS011;7717;47.792;12.076;2024-02-23T01:23:55;0.10;;;0.10;;
15228;SDS011;7717;47.792;12.076;2024-02-23T01:26:22;0.10;;;0.10;;
15228;SDS011;7717;47.792;12.076;2024-02-23T01:28:48;0.07;;;0.07;;
15228;SDS011;7717;47.792;12.076;2024-02-23T01:31:13;0.00;;;0.00;;
15228;SDS011;7717;47.792;12.076;2024-02-23T01:33:39;0.10;;;0.10;;
15228;SDS011;7717;47.792;12.076;2024-02-23T01:36:05;0.10;;;0.10;;
15228;SDS011;7717;47.792;12.076;2024-02-23T01:38:30;0.00;;;0.00;;
15228;SDS011;7717;47.792;12.076;2024-02-23T01:40:57;0.00;;;0.00;;
15228;SDS011;7717;47.792;12.076;2024-02-23T01:43:26;0.10;;;0.10;;
15228;SDS011;7717;47.792;12.076;2024-02-23T01:45:52;0.10;;;0.10;;
15228;SDS011;7717;47.792;12.076;2024-02-23T01:48:18;0.00;;;0.00;;
15228;SDS011;7717;47.792;12.076;2024-02-23T01:50:45;1.17;;;0.10;;
15228;SDS011;7717;47.792;12.076;2024-02-23T01:53:10;0.00;;;0.00;;
15228;SDS011;7717;47.792;12.076;2024-02-23T01:55:39;0.00;;;0.00;;
15228;SDS011;7717;47.792;12.076;2024-02-23T01:58:06;0.10;;;0.10;;
15228;SDS011;7717;47.792;12.076;2024-02-23T02:00:32;0.10;;;0.10;;
15228;SDS011;7717;47.792;12.076;2024-02-23T02:02:57;0.00;;;0.00;;
15228;SDS011;7717;47.792;12.076;2024-02-23T02:05:23;0.10;;;0.10;;
15228;SDS011;7717;47.792;12.076;2024-02-23T02:07:49;0.10;;;0.10;;
15228;SDS011;7717;47.792;12.076;2024-02-23T02:10:19;0.10;;;0.10;;
15228;SDS011;7717;47.792;12.076;2024-02-23T02:12:45;0.10;;;0.10;;
15228;SDS011;7717;47.792;12.076;2024-02-23T02:15:10;0.00;;;0.00;;
15228;SDS011;7717;47.792;12.076;2024-02-23T02:17:35;0.10;;;0.10;;
15228;SDS011;7717;47.792;12.076;2024-02-23T02:20:02;0.10;;;0.10;;
15228;SDS011;7717;47.792;12.076;2024-02-23T02:22:31;0.10;;;0.10;;
15228;SDS011;7717;47.792;12.076;2024-02-23T02:24:57;0.00;;;0.00;;
15228;SDS011;7717;47.792;12.076;2024-02-23T02:27:22;0.43;;;0.10;;
15228;SDS011;7717;47.792;12.076;2024-02-23T02:29:49;0.10;;;0.10;;
15228;SDS011;7717;47.792;12.076;2024-02-23T02:32:16;0.10;;;0.03;;
15228;SDS011;7717;47.792;12.076;2024-02-23T02:34:41;0.87;;;0.10;;
15228;SDS011;7717;47.792;12.076;2024-02-23T02:37:07;0.10;;;0.10;;
15228;SDS011;7717;47.792;12.076;2024-02-23T02:39:32;0.10;;;0.10;;
15228;SDS011;7717;47.792;12.076;2024-02-23T02:41:58;0.10;;;0.10;;
15228;SDS011;7717;47.792;12.076;2024-02-23T02:44:24;0.10;;;0.10;;
15228;SDS011;7717;47.792;12.076;2024-02-23T02:46:49;0.00;;;0.00;;
15228;SDS011;7717;47.792;12.076;2024-02-23T02:49:14;0.10;;;0.10;;
15228;SDS011;7717;47.792;12.076;2024-02-23T02:51:40;0.30;;;0.10;;
15228;SDS011;7717;47.792;12.076;2024-02-23T02:54:05;0.00;;;0.00;;
15228;SDS011;7717;47.792;12.076;2024-02-23T02:56:31;0.10;;;0.10;;
15228;SDS011;7717;47.792;12.076;2024-02-23T02:58:56;0.43;;;0.10;;
15228;SDS011;7717;47.792;12.076;2024-02-23T03:01:21;0.07;;;0.07;;
15228;SDS011;7717;47.792;12.076;2024-02-23T03:03:47;0.10;;;0.10;;
15228;SDS011;7717;47.792;12.076;2024-02-23T03:06:12;0.10;;;0.10;;
15228;SDS011;7717;47.792;12.076;2024-02-23T03:08:37;0.17;;;0.10;;
15228;SDS011;7717;47.792;12.076;2024-02-23T03:11:03;0.10;;;0.10;;
15228;SDS011;7717;47.792;12.076;2024-02-23T03:13:28;0.10;;;0.10;;
15228;SDS011;7717;47.792;12.076;2024-02-23T03:15:54;0.10;;;0.10;;
15228;SDS011;7717;47.792;12.076;2024-02-23T03:18:19;0.10;;;0.10;;
15228;SDS011;7717;47.792;12.076;2024-02-23T03:20:44;0.10;;;0.10;;
15228;SDS011;7717;47.792;12.076;2024-02-23T03:23:10;0.00;;;0.00;;
15228;SDS011;7717;47.792;12.076;2024-02-23T03:25:36;0.00;;;0.00;;
15228;SDS011;7717;47.792;12.076;2024-02-23T03:28:01;0.20;;;0.10;;
15228;SDS011;7717;47.792;12.076;2024-02-23T03:30:27;0.10;;;0.10;;
15228;SDS011;7717;47.792;12.076;2024-02-23T03:32:52;0.10;;;0.10;;
15228;SDS011;7717;47.792;12.076;2024-02-23T03:35:18;0.10;;;0.10;;
15228;SDS011;7717;47.792;12.076;2024-02-23T03:37:43;0.10;;;0.10;;
15228;SDS011;7717;47.792;12.076;2024-02-23T03:40:09;0.47;;;0.30;;
15228;SDS011;7717;47.792;12.076;2024-02-23T03:42:35;0.10;;;0.10;;
15228;SDS011;7717;47.792;12.076;2024-02-23T03:45:01;0.20;;;0.10;;
15228;SDS011;7717;47.792;12.076;2024-02-23T03:47:26;0.10;;;0.10;;
15228;SDS011;7717;47.792;12.076;2024-02-23T03:49:51;0.33;;;0.10;;
15228;SDS011;7717;47.792;12.076;2024-02-23T03:52:17;0.10;;;0.10;;
15228;SDS011;7717;47.792;12.076;2024-02-23T03:54:42;1.10;;;0.10;;
15228;SDS011;7717;47.792;12.076;2024-02-23T03:57:07;0.10;;;0.10;;
15228;SDS011;7717;47.792;12.076;2024-02-23T03:59:35;0.97;;;0.63;;
15228;SDS011;7717;47.792;12.076;2024-02-23T04:02:01;0.00;;;0.00;;
15228;SDS011;7717;47.792;12.076;2024-02-23T04:04:28;0.10;;;0.10;;
15228;SDS011;7717;47.792;12.076;2024-02-23T04:06:53;0.10;;;0.10;;
15228;SDS011;7717;47.792;12.076;2024-02-23T04:09:19;0.77;;;0.10;;
15228;SDS011;7717;47.792;12.076;2024-02-23T04:11:47;0.17;;;0.10;;
15228;SDS011;7717;47.792;12.076;2024-02-23T04:14:12;2.47;;;0.20;;
15228;SDS011;7717;47.792;12.076;2024-02-23T04:16:38;0.47;;;0.20;;
15228;SDS011;7717;47.792;12.076;2024-02-23T04:19:03;0.10;;;0.10;;
15228;SDS011;7717;47.792;12.076;2024-02-23T04:21:28;0.73;;;0.23;;
15228;SDS011;7717;47.792;12.076;2024-02-23T04:23:54;0.10;;;0.10;;
15228;SDS011;7717;47.792;12.076;2024-02-23T04:26:19;0.23;;;0.20;;
15228;SDS011;7717;47.792;12.076;2024-02-23T04:28:44;0.10;;;0.10;;
15228;SDS011;7717;47.792;12.076;2024-02-23T04:31:10;0.10;;;0.10;;
15228;SDS011;7717;47.792;12.076;2024-02-23T04:33:36;0.30;;;0.10;;
15228;SDS011;7717;47.792;12.076;2024-02-23T04:36:02;0.73;;;0.10;;
15228;SDS011;7717;47.792;12.076;2024-02-23T04:38:29;0.10;;;0.10;;
15228;SDS011;7717;47.792;12.076;2024-02-23T04:40:54;0.10;;;0.10;;
15228;SDS011;7717;47.792;12.076;2024-02-23T04:43:21;0.10;;;0.10;;
15228;SDS011;7717;47.792;12.076;2024-02-23T04:45:47;0.10;;;0.10;;
15228;SDS011;7717;47.792;12.076;2024-02-23T04:48:12;0.63;;;0.20;;
15228;SDS011;7717;47.792;12.076;2024-02-23T04:50:37;0.10;;;0.10;;
15228;SDS011;7717;47.792;12.076;2024-02-23T04:53:03;0.10;;;0.10;;
15228;SDS011;7717;47.792;12.076;2024-02-23T04:55:28;0.40;;;0.30;;
15228;SDS011;7717;47.792;12.076;2024-02-23T04:57:53;0.83;;;0.17;;
15228;SDS011;7717;47.792;12.076;2024-02-23T05:00:19;0.10;;;0.10;;
15228;SDS011;7717;47.792;12.076;2024-02-23T05:02:45;0.10;;;0.10;;
15228;SDS011;7717;47.792;12.076;2024-02-23T05:05:11;0.50;;;0.17;;
15228;SDS011;7717;47.792;12.076;2024-02-23T05:07:37;0.10;;;0.10;;
15228;SDS011;7717;47.792;12.076;2024-02-23T05:10:02;0.17;;;0.10;;
15228;SDS011;7717;47.792;12.076;2024-02-23T05:12:28;0.10;;;0.10;;
15228;SDS011;7717;47.792;12.076;2024-02-23T05:14:54;0.10;;;0.10;;
15228;SDS011;7717;47.792;12.076;2024-02-23T05:17:19;0.30;;;0.20;;
15228;SDS011;7717;47.792;12.076;2024-02-23T05:19:44;0.10;;;0.10;;
15228;SDS011;7717;47.792;12.076;2024-02-23T05:22:11;0.10;;;0.10;;
15228;SDS011;7717;47.792;12.076;2024-02-23T05:24:37;0.67;;;0.10;;
15228;SDS011;7717;47.792;12.076;2024-02-23T05:27:02;0.60;;;0.60;;
15228;SDS011;7717;47.792;12.076;2024-02-23T05:29:28;0.30;;;0.30;;
15228;SDS011;7717;47.792;12.076;2024-02-23T05:31:53;1.83;;;0.47;;
15228;SDS011;7717;47.792;12.076;2024-02-23T05:34:19;0.67;;;0.50;;
15228;SDS011;7717;47.792;12.076;2024-02-23T05:36:45;0.30;;;0.30;;
15228;SDS011;7717;47.792;12.076;2024-02-23T05:39:12;0.67;;;0.40;;
15228;SDS011;7717;47.792;12.076;2024-02-23T05:41:41;0.40;;;0.40;;
15228;SDS011;7717;47.792;12.076;2024-02-23T05:44:07;0.33;;;0.20;;
15228;SDS011;7717;47.792;12.076;2024-02-23T05:46:33;0.40;;;0.30;;
15228;SDS011;7717;47.792;12.076;2024-02-23T05:49:00;0.10;;;0.10;;
15228;SDS011;7717;47.792;12.076;2024-02-23T05:51:25;0.50;;;0.50;;
15228;SDS011;7717;47.792;12.076;2024-02-23T05:53:50;2.63;;;2.43;;
15228;SDS011;7717;47.792;12.076;2024-02-23T05:56:16;1.70;;;1.03;;
15228;SDS011;7717;47.792;12.076;2024-02-23T05:58:41;1.30;;;1.30;;
15228;SDS011;7717;47.792;12.076;2024-02-23T06:01:06;0.53;;;0.53;;
15228;SDS011;7717;47.792;12.076;2024-02-23T06:03:32;0.30;;;0.30;;
15228;SDS011;7717;47.792;12.076;2024-02-23T06:05:58;0.40;;;0.40;;
15228;SDS011;7717;47.792;12.076;2024-02-23T06:08:23;0.40;;;0.40;;
15228;SDS011;7717;47.792;12.076;2024-02-23T06:10:49;0.60;;;0.50;;
15228;SDS011;7717;47.792;12.076;2024-02-23T06:13:14;3.43;;;2.60;;
15228;SDS011;7717;47.792;12.076;2024-02-23T06:15:40;1.53;;;1.30;;
15228;SDS011;7717;47.792;12.076;2024-02-23T06:18:05;0.53;;;0.50;;
15228;SDS011;7717;47.792;12.076;2024-02-23T06:20:31;0.80;;;0.80;;
15228;SDS011;7717;47.792;12.076;2024-02-23T06:22:57;0.73;;;0.70;;
15228;SDS011;7717;47.792;12.076;2024-02-23T06:25:22;1.03;;;0.80;;
15228;SDS011;7717;47.792;12.076;2024-02-23T06:27:48;0.60;;;0.50;;
15228;SDS011;7717;47.792;12.076;2024-02-23T06:30:13;1.10;;;1.00;;
15228;SDS011;7717;47.792;12.076;2024-02-23T06:32:39;1.00;;;0.97;;
15228;SDS011;7717;47.792;12.076;2024-02-23T06:35:04;0.60;;;0.53;;
15228;SDS011;7717;47.792;12.076;2024-02-23T06:37:31;0.60;;;0.60;;
15228;SDS011;7717;47.792;12.076;2024-02-23T06:39:57;1.53;;;1.30;;
15228;SDS011;7717;47.792;12.076;2024-02-23T06:42:23;1.70;;;1.60;;
15228;SDS011;7717;47.792;12.076;2024-02-23T06:44:49;2.53;;;1.83;;
15228;SDS011;7717;47.792;12.076;2024-02-23T06:47:14;3.77;;;2.47;;
15228;SDS011;7717;47.792;12.076;2024-02-23T06:49:43;2.13;;;1.00;;
15228;SDS011;7717;47.792;12.076;2024-02-23T06:52:09;1.43;;;1.07;;
15228;SDS011;7717;47.792;12.076;2024-02-23T06:54:35;4.87;;;2.80;;
15228;SDS011;7717;47.792;12.076;2024-02-23T06:57:00;1.17;;;0.97;;
15228;SDS011;7717;47.792;12.076;2024-02-23T06:59:26;4.20;;;1.47;;
15228;SDS011;7717;47.792;12.076;2024-02-23T07:01:51;2.17;;;1.73;;
15228;SDS011;7717;47.792;12.076;2024-02-23T07:04:17;1.73;;;1.20;;
15228;SDS011;7717;47.792;12.076;2024-02-23T07:06:43;2.77;;;1.53;;
15228;SDS011;7717;47.792;12.076;2024-02-23T07:09:08;0.77;;;0.60;;
15228;SDS011;7717;47.792;12.076;2024-02-23T07:11:34;2.80;;;0.83;;
15228;SDS011;7717;47.792;12.076;2024-02-23T07:13:59;0.70;;;0.60;;
15228;SDS011;7717;47.792;12.076;2024-02-23T07:16:25;0.30;;;0.30;;
15228;SDS011;7717;47.792;12.076;2024-02-23T07:18:51;0.70;;;0.70;;
15228;SDS011;7717;47.792;12.076;2024-02-23T07:21:19;1.20;;;0.90;;
15228;SDS011;7717;47.792;12.076;2024-02-23T07:23:44;0.67;;;0.67;;
15228;SDS011;7717;47.792;12.076;2024-02-23T07:26:10;1.57;;;1.00;;
15228;SDS011;7717;47.792;12.076;2024-02-23T07:28:35;2.17;;;0.90;;
15228;SDS011;7717;47.792;12.076;2024-02-23T07:31:01;1.10;;;0.87;;
15228;SDS011;7717;47.792;12.076;2024-02-23T07:33:26;0.47;;;0.30;;
15228;SDS011;7717;47.792;12.076;2024-02-23T07:35:51;0.77;;;0.50;;
15228;SDS011;7717;47.792;12.076;2024-02-23T07:38:17;0.30;;;0.30;;
15228;SDS011;7717;47.792;12.076;2024-02-23T07:40:45;1.50;;;0.40;;
15228;SDS011;7717;47.792;12.076;2024-02-23T07:43:10;1.20;;;0.50;;
15228;SDS011;7717;47.792;12.076;2024-02-23T07:45:36;1.30;;;0.40;;
15228;SDS011;7717;47.792;12.076;2024-02-23T07:48:02;0.53;;;0.50;;
15228;SDS011;7717;47.792;12.076;2024-02-23T07:50:28;1.70;;;0.47;;
15228;SDS011;7717;47.792;12.076;2024-02-23T07:52:54;0.50;;;0.50;;
15228;SDS011;7717;47.792;12.076;2024-02-23T07:55:19;0.20;;;0.20;;
15228;SDS011;7717;47.792;12.076;2024-02-23T07:57:44;0.47;;;0.27;;
15228;SDS011;7717;47.792;12.076;2024-02-23T08:00:10;0.27;;;0.27;;
15228;SDS011;7717;47.792;12.076;2024-02-23T08:02:35;0.30;;;0.30;;
15228;SDS011;7717;47.792;12.076;2024-02-23T08:05:01;0.37;;;0.37;;
15228;SDS011;7717;47.792;12.076;2024-02-23T08:07:27;0.40;;;0.40;;
15228;SDS011;7717;47.792;12.076;2024-02-23T08:09:53;1.23;;;0.70;;
15228;SDS011;7717;47.792;12.076;2024-02-23T08:12:19;0.90;;;0.50;;
15228;SDS011;7717;47.792;12.076;2024-02-23T08:14:44;0.93;;;0.40;;
15228;SDS011;7717;47.792;12.076;2024-02-23T08:17:11;0.47;;;0.30;;
15228;SDS011;7717;47.792;12.076;2024-02-23T08:19:37;8.63;;;3.43;;
15228;SDS011;7717;47.792;12.076;2024-02-23T08:22:02;0.50;;;0.47;;
15228;SDS011;7717;47.792;12.076;2024-02-23T08:24:27;0.30;;;0.30;;
15228;SDS011;7717;47.792;12.076;2024-02-23T08:26:53;0.40;;;0.40;;
15228;SDS011;7717;47.792;12.076;2024-02-23T08:29:19;1.53;;;0.40;;
15228;SDS011;7717;47.792;12.076;2024-02-23T08:31:44;0.30;;;0.30;;
15228;SDS011;7717;47.792;12.076;2024-02-23T08:34:09;0.20;;;0.20;;
15228;SDS011;7717;47.792;12.076;2024-02-23T08:36:35;0.50;;;0.20;;
15228;SDS011;7717;47.792;12.076;2024-02-23T08:39:00;3.97;;;0.60;;
15228;SDS011;7717;47.792;12.076;2024-02-23T08:41:26;3.67;;;1.93;;
15228;SDS011;7717;47.792;12.076;2024-02-23T08:43:51;9.70;;;2.53;;
15228;SDS011;7717;47.792;12.076;2024-02-23T08:46:16;1.13;;;0.30;;
15228;SDS011;7717;47.792;12.076;2024-02-23T08:48:42;0.40;;;0.27;;
15228;SDS011;7717;47.792;12.076;2024-02-23T08:51:07;0.40;;;0.37;;
15228;SDS011;7717;47.792;12.076;2024-02-23T08:53:32;7.37;;;3.93;;
15228;SDS011;7717;47.792;12.076;2024-02-23T08:55:58;0.77;;;0.70;;
15228;SDS011;7717;47.792;12.076;2024-02-23T08:58:23;1.40;;;0.50;;
15228;SDS011;7717;47.792;12.076;2024-02-23T09:00:48;1.20;;;0.90;;
15228;SDS011;7717;47.792;12.076;2024-02-23T09:03:14;0.90;;;0.80;;
15228;SDS011;7717;47.792;12.076;2024-02-23T09:05:40;0.50;;;0.50;;
15228;SDS011;7717;47.792;12.076;2024-02-23T09:08:06;0.40;;;0.40;;
15228;SDS011;7717;47.792;12.076;2024-02-23T09:10:31;1.00;;;0.87;;
15228;SDS011;7717;47.792;12.076;2024-02-23T09:12:58;1.83;;;1.43;;
15228;SDS011;7717;47.792;12.076;2024-02-23T09:15:23;1.70;;;0.77;;
15228;SDS011;7717;47.792;12.076;2024-02-23T09:17:48;0.40;;;0.40;;
15228;SDS011;7717;47.792;12.076;2024-02-23T09:20:14;0.97;;;0.63;;
15228;SDS011;7717;47.792;12.076;2024-02-23T09:22:40;1.23;;;0.57;;
15228;SDS011;7717;47.792;12.076;2024-02-23T09:25:05;1.37;;;0.70;;
15228;SDS011;7717;47.792;12.076;2024-02-23T09:27:31;1.43;;;0.90;;
15228;SDS011;7717;47.792;12.076;2024-02-23T09:29:57;0.47;;;0.40;;
15228;SDS011;7717;47.792;12.076;2024-02-23T09:32:23;0.87;;;0.70;;
15228;SDS011;7717;47.792;12.076;2024-02-23T09:34:49;1.33;;;0.73;;
15228;SDS011;7717;47.792;12.076;2024-02-23T09:37:14;1.27;;;0.73;;
15228;SDS011;7717;47.792;12.076;2024-02-23T09:39:40;0.70;;;0.70;;
15228;SDS011;7717;47.792;12.076;2024-02-23T09:42:07;1.30;;;0.33;;
15228;SDS011;7717;47.792;12.076;2024-02-23T09:44:35;1.03;;;0.43;;
15228;SDS011;7717;47.792;12.076;2024-02-23T09:47:01;0.40;;;0.40;;
15228;SDS011;7717;47.792;12.076;2024-02-23T09:49:33;2.33;;;0.70;;
15228;SDS011;7717;47.792;12.076;2024-02-23T09:52:02;0.70;;;0.70;;
15228;SDS011;7717;47.792;12.076;2024-02-23T09:54:29;0.63;;;0.63;;
15228;SDS011;7717;47.792;12.076;2024-02-23T09:56:55;0.40;;;0.40;;
15228;SDS011;7717;47.792;12.076;2024-02-23T09:59:20;0.30;;;0.30;;
15228;SDS011;7717;47.792;12.076;2024-02-23T10:01:46;0.60;;;0.60;;
15228;SDS011;7717;47.792;12.076;2024-02-23T10:04:12;0.40;;;0.40;;
15228;SDS011;7717;47.792;12.076;2024-02-23T10:06:38;0.50;;;0.50;;
15228;SDS011;7717;47.792;12.076;2024-02-23T10:09:03;1.07;;;0.60;;
15228;SDS011;7717;47.792;12.076;2024-02-23T10:11:29;0.30;;;0.30;;
15228;SDS011;7717;47.792;12.076;2024-02-23T10:13:54;0.30;;;0.30;;
15228;SDS011;7717;47.792;12.076;2024-02-23T10:16:20;0.93;;;0.27;;
15228;SDS011;7717;47.792;12.076;2024-02-23T10:18:50;0.30;;;0.20;;
15228;SDS011;7717;47.792;12.076;2024-02-23T10:21:15;0.40;;;0.20;;
15228;SDS011;7717;47.792;12.076;2024-02-23T10:23:43;0.30;;;0.30;;
15228;SDS011;7717;47.792;12.076;2024-02-23T10:26:09;0.77;;;0.40;;
15228;SDS011;7717;47.792;12.076;2024-02-23T10:28:36;1.70;;;0.87;;
15228;SDS011;7717;47.792;12.076;2024-02-23T10:31:03;0.70;;;0.70;;
15228;SDS011;7717;47.792;12.076;2024-02-23T10:33:29;0.80;;;0.50;;
15228;SDS011;7717;47.792;12.076;2024-02-23T10:35:56;0.50;;;0.50;;
15228;SDS011;7717;47.792;12.076;2024-02-23T10:38:23;0.70;;;0.70;;
15228;SDS011;7717;47.792;12.076;2024-02-23T10:40:50;1.80;;;0.30;;
15228;SDS011;7717;47.792;12.076;2024-02-23T10:43:16;0.33;;;0.33;;
15228;SDS011;7717;47.792;12.076;2024-02-23T10:45:45;1.70;;;1.00;;
15228;SDS011;7717;47.792;12.076;2024-02-23T10:48:11;0.30;;;0.30;;
15228;SDS011;7717;47.792;12.076;2024-02-23T10:50:39;0.73;;;0.50;;
15228;SDS011;7717;47.792;12.076;2024-02-23T10:53:07;1.03;;;0.80;;
15228;SDS011;7717;47.792;12.076;2024-02-23T10:55:36;0.40;;;0.30;;
15228;SDS011;7717;47.792;12.076;2024-02-23T10:58:02;0.87;;;0.73;;
15228;SDS011;7717;47.792;12.076;2024-02-23T11:00:28;0.57;;;0.30;;
15228;SDS011;7717;47.792;12.076;2024-02-23T11:02:54;1.07;;;0.77;;
15228;SDS011;7717;47.792;12.076;2024-02-23T11:05:20;0.73;;;0.50;;
15228;SDS011;7717;47.792;12.076;2024-02-23T11:07:47;0.60;;;0.60;;
15228;SDS011;7717;47.792;12.076;2024-02-23T11:10:16;0.80;;;0.80;;
15228;SDS011;7717;47.792;12.076;2024-02-23T11:12:42;0.53;;;0.53;;
15228;SDS011;7717;47.792;12.076;2024-02-23T11:15:08;0.70;;;0.70;;
15228;SDS011;7717;47.792;12.076;2024-02-23T11:17:35;1.50;;;1.17;;
15228;SDS011;7717;47.792;12.076;2024-02-23T11:20:05;1.07;;;0.80;;
15228;SDS011;7717;47.792;12.076;2024-02-23T11:22:34;0.47;;;0.40;;
15228;SDS011;7717;47.792;12.076;2024-02-23T11:25:04;0.47;;;0.47;;
15228;SDS011;7717;47.792;12.076;2024-02-23T11:27:36;0.70;;;0.60;;
15228;SDS011;7717;47.792;12.076;2024-02-23T11:30:03;0.80;;;0.80;;
15228;SDS011;7717;47.792;12.076;2024-02-23T11:32:43;0.70;;;0.60;;
15228;SDS011;7717;47.792;12.076;2024-02-23T11:35:12;1.83;;;0.80;;
15228;SDS011;7717;47.792;12.076;2024-02-23T11:37:54;0.67;;;0.67;;
15228;SDS011;7717;47.792;12.076;2024-02-23T11:40:27;2.60;;;2.07;;
15228;SDS011;7717;47.792;12.076;2024-02-23T11:42:56;1.60;;;1.50;;
15228;SDS011;7717;47.792;12.076;2024-02-23T11:45:23;1.30;;;1.27;;
15228;SDS011;7717;47.792;12.076;2024-02-23T11:47:49;11.13;;;4.37;;
15228;SDS011;7717;47.792;12.076;2024-02-23T11:50:14;1.97;;;1.37;;
15228;SDS011;7717;47.792;12.076;2024-02-23T11:52:45;2.63;;;2.43;;
15228;SDS011;7717;47.792;12.076;2024-02-23T11:55:11;0.93;;;0.90;;
15228;SDS011;7717;47.792;12.076;2024-02-23T11:57:37;6.27;;;3.57;;
15228;SDS011;7717;47.792;12.076;2024-02-23T12:00:03;1.97;;;1.87;;
15228;SDS011;7717;47.792;12.076;2024-02-23T12:02:32;1.57;;;1.43;;
15228;SDS011;7717;47.792;12.076;2024-02-23T12:04:57;11.60;;;10.43;;
15228;SDS011;7717;47.792;12.076;2024-02-23T12:07:23;6.93;;;6.53;;
15228;SDS011;7717;47.792;12.076;2024-02-23T12:09:51;0.60;;;0.60;;
15228;SDS011;7717;47.792;12.076;2024-02-23T12:12:16;1.20;;;1.10;;
15228;SDS011;7717;47.792;12.076;2024-02-23T12:14:42;1.90;;;1.70;;
15228;SDS011;7717;47.792;12.076;2024-02-23T12:17:08;1.60;;;1.40;;
15228;SDS011;7717;47.792;12.076;2024-02-23T12:19:42;3.30;;;3.00;;
15228;SDS011;7717;47.792;12.076;2024-02-23T12:22:09;5.30;;;3.27;;
15228;SDS011;7717;47.792;12.076;2024-02-23T12:24:36;1.23;;;1.13;;
15228;SDS011;7717;47.792;12.076;2024-02-23T12:27:01;7.83;;;7.00;;
15228;SDS011;7717;47.792;12.076;2024-02-23T12:29:27;17.00;;;13.27;;
15228;SDS011;7717;47.792;12.076;2024-02-23T12:32:02;11.07;;;9.43;;
15228;SDS011;7717;47.792;12.076;2024-02-23T12:34:31;3.43;;;2.80;;
15228;SDS011;7717;47.792;12.076;2024-02-23T12:36:56;4.70;;;3.50;;
15228;SDS011;7717;47.792;12.076;2024-02-23T12:39:22;4.30;;;3.90;;
15228;SDS011;7717;47.792;12.076;2024-02-23T12:41:47;2.43;;;1.80;;
15228;SDS011;7717;47.792;12.076;2024-02-23T12:44:12;6.87;;;5.40;;
15228;SDS011;7717;47.792;12.076;2024-02-23T12:46:39;2.70;;;1.43;;
15228;SDS011;7717;47.792;12.076;2024-02-23T12:49:05;2.60;;;2.40;;
15228;SDS011;7717;47.792;12.076;2024-02-23T12:51:30;4.20;;;2.30;;
15228;SDS011;7717;47.792;12.076;2024-02-23T12:53:56;2.20;;;2.00;;
15228;SDS011;7717;47.792;12.076;2024-02-23T12:56:21;3.07;;;2.13;;
15228;SDS011;7717;47.792;12.076;2024-02-23T12:58:46;2.77;;;1.83;;
15228;SDS011;7717;47.792;12.076;2024-02-23T13:01:12;4.23;;;3.80;;
15228;SDS011;7717;47.792;12.076;2024-02-23T13:03:37;3.57;;;3.27;;
15228;SDS011;7717;47.792;12.076;2024-02-23T13:06:05;3.57;;;3.10;;
15228;SDS011;7717;47.792;12.076;2024-02-23T13:08:31;1.97;;;1.80;;
15228;SDS011;7717;47.792;12.076;2024-02-23T13:10:56;3.30;;;3.00;;
15228;SDS011;7717;47.792;12.076;2024-02-23T13:13:22;2.50;;;2.30;;
15228;SDS011;7717;47.792;12.076;2024-02-23T13:15:48;5.23;;;4.00;;
15228;SDS011;7717;47.792;12.076;2024-02-23T13:18:15;5.13;;;4.13;;
15228;SDS011;7717;47.792;12.076;2024-02-23T13:20:40;7.53;;;5.57;;
15228;SDS011;7717;47.792;12.076;2024-02-23T13:23:07;4.13;;;3.77;;
15228;SDS011;7717;47.792;12.076;2024-02-23T13:25:33;10.03;;;7.67;;
15228;SDS011;7717;47.792;12.076;2024-02-23T13:28:05;8.73;;;5.67;;
15228;SDS011;7717;47.792;12.076;2024-02-23T13:30:31;3.23;;;2.20;;
15228;SDS011;7717;47.792;12.076;2024-02-23T13:32:57;3.80;;;3.47;;
15228;SDS011;7717;47.792;12.076;2024-02-23T13:35:23;2.77;;;2.40;;
15228;SDS011;7717;47.792;12.076;2024-02-23T13:37:48;2.23;;;2.03;;
15228;SDS011;7717;47.792;12.076;2024-02-23T13:40:14;2.20;;;2.03;;
15228;SDS011;7717;47.792;12.076;2024-02-23T13:42:39;6.40;;;3.17;;
15228;SDS011;7717;47.792;12.076;2024-02-23T13:45:08;20.97;;;13.00;;
15228;SDS011;7717;47.792;12.076;2024-02-23T13:47:34;24.53;;;15.80;;
15228;SDS011;7717;47.792;12.076;2024-02-23T13:50:00;5.83;;;3.83;;
15228;SDS011;7717;47.792;12.076;2024-02-23T13:52:27;10.60;;;6.93;;
15228;SDS011;7717;47.792;12.076;2024-02-23T13:54:53;22.77;;;15.30;;
15228;SDS011;7717;47.792;12.076;2024-02-23T13:57:18;28.37;;;20.97;;
15228;SDS011;7717;47.792;12.076;2024-02-23T13:59:43;8.93;;;5.13;;
15228;SDS011;7717;47.792;12.076;2024-02-23T14:02:09;6.83;;;4.50;;
15228;SDS011;7717;47.792;12.076;2024-02-23T14:04:35;3.20;;;2.60;;
15228;SDS011;7717;47.792;12.076;2024-02-23T14:07:00;4.43;;;3.93;;
15228;SDS011;7717;47.792;12.076;2024-02-23T14:09:26;2.63;;;2.43;;
15228;SDS011;7717;47.792;12.076;2024-02-23T14:11:51;3.07;;;1.90;;
15228;SDS011;7717;47.792;12.076;2024-02-23T14:14:17;5.23;;;4.60;;
15228;SDS011;7717;47.792;12.076;2024-02-23T14:16:42;5.50;;;5.00;;
15228;SDS011;7717;47.792;12.076;2024-02-23T14:19:07;2.20;;;2.00;;
15228;SDS011;7717;47.792;12.076;2024-02-23T14:21:33;2.67;;;2.53;;
15228;SDS011;7717;47.792;12.076;2024-02-23T14:24:00;2.83;;;2.07;;
15228;SDS011;7717;47.792;12.076;2024-02-23T14:26:26;1.10;;;0.97;;
15228;SDS011;7717;47.792;12.076;2024-02-23T14:28:52;1.63;;;1.53;;
15228;SDS011;7717;47.792;12.076;2024-02-23T14:31:17;1.27;;;1.23;;
15228;SDS011;7717;47.792;12.076;2024-02-23T14:33:42;1.70;;;1.60;;
15228;SDS011;7717;47.792;12.076;2024-02-23T14:36:08;1.60;;;0.90;;
15228;SDS011;7717;47.792;12.076;2024-02-23T14:38:33;1.70;;;1.50;;
15228;SDS011;7717;47.792;12.076;2024-02-23T14:40:59;2.50;;;2.30;;